Decoded Metar for ZGHA (CHANGCHA in CHINA) (IATA:CSX) | Meteo·Mobile Aviation Weather
aviador You're here:

ZGHA Decoded Metar

CHANGCHA in CHINA
Report Time2019-11-13 21:00:00
UTC Time2019-11-13 21:53:09
Flight Rules vfr VFR
Wind020° at 4 kt
W.Decomp.*RWY 36: 3.7 kt HW 1.6 kt RCW
Visibility8000 m
Phenomena:N/A
Clouds:N/A
Expected CloudBase > 400 ft AGL from Temp-Dew spread
CeilingNone
Temp10°C (ISA -5)
Dew Point09°C (94% RH)
AAT8.4°C
QNH1027 hPa
Density Alt-646 ft
Elevation217 ft
Report Wrong Elevation
Raw Report
ZGHA 132100Z 02002MPS 8000 NSC 10/09 Q1027 NOSIG=

Extra information for ZGHA:More info

Metar Taf Metar & Taf Last 4 Metars F.Rules Stats Wind Profile Meteogram Temp Stats Airport Information Weather charts Add Link Nearby VenuesMetar ALERT Operation Metar Decoded Social comments